Time;durP1;ratioP1;P1;durP2;ratioP2;P2;SDS_P1;SDS_P2;PMS_P1;PMS_P2;Temp;Humidity;BMP_temperature;BMP_pressure;BME280_temperature;BME280_humidity;BME280_pressure;Samples;Min_cycle;Max_cycle;Signal;HPM_P1;HPM_P2
2023/07/04 00:01:14;;;;;;;7.70;2.90;;;16.30;57.90;;;;;;5050933;28;20117;-57
2023/07/04 00:03:42;;;;;;;8.77;2.58;;;16.30;57.80;;;;;;5027232;28;20116;-58
2023/07/04 00:06:10;;;;;;;7.60;2.70;;;16.30;57.50;;;;;;5047987;28;20056;-57
2023/07/04 00:08:36;;;;;;;6.97;2.78;;;16.30;57.00;;;;;;5030079;28;20025;-58
2023/07/04 00:11:04;;;;;;;6.53;2.88;;;16.30;56.60;;;;;;5050872;28;20128;-57
2023/07/04 00:13:31;;;;;;;6.63;3.00;;;16.30;56.40;;;;;;5029932;28;20037;-53
2023/07/04 00:15:58;;;;;;;6.10;2.92;;;16.30;55.90;;;;;;5050705;28;20120;-57
2023/07/04 00:18:25;;;;;;;6.63;2.88;;;16.30;55.80;;;;;;5029624;28;20029;-59
2023/07/04 00:20:55;;;;;;;5.70;3.17;;;16.40;55.70;;;;;;5050682;28;20075;-60
2023/07/04 00:23:22;;;;;;;6.63;2.85;;;16.40;55.40;;;;;;5038897;28;20439;-57
2023/07/04 00:25:47;;;;;;;4.80;3.03;;;16.40;55.30;;;;;;5050683;28;20033;-57
2023/07/04 00:28:13;;;;;;;5.93;3.30;;;16.40;55.30;;;;;;5029577;28;20021;-57
2023/07/04 00:30:38;;;;;;;8.18;3.28;;;16.50;55.30;;;;;;5049773;28;20497;-57
2023/07/04 00:33:04;;;;;;;6.05;3.13;;;16.40;55.20;;;;;;5028712;28;20788;-57
2023/07/04 00:35:30;;;;;;;10.73;3.28;;;16.40;55.00;;;;;;5049737;28;20029;-57
2023/07/04 00:37:58;;;;;;;7.07;3.45;;;16.50;55.00;;;;;;5029390;28;20543;-58
2023/07/04 00:40:26;;;;;;;7.50;3.40;;;16.50;55.00;;;;;;5050514;28;20033;-58
2023/07/04 00:42:55;;;;;;;7.70;3.47;;;16.50;54.90;;;;;;5028792;28;20052;-57
2023/07/04 00:45:21;;;;;;;6.60;3.47;;;16.50;54.70;;;;;;5049611;28;20116;-58
2023/07/04 00:47:57;;;;;;;10.05;3.40;;;16.50;54.70;;;;;;5028818;28;20026;-57
2023/07/04 00:50:29;;;;;;;6.40;3.28;;;16.50;54.70;;;;;;5010719;28;20026;-58
2023/07/04 00:52:58;;;;;;;7.05;3.10;;;16.50;54.40;;;;;;5037109;28;20030;-58
2023/07/04 00:55:25;;;;;;;8.77;3.60;;;16.60;54.30;;;;;;5050063;28;20116;-56
2023/07/04 00:57:50;;;;;;;7.68;3.47;;;16.60;54.00;;;;;;5028863;28;20036;-58
2023/07/04 01:00:19;;;;;;;5.85;3.40;;;16.60;54.00;;;;;;5049523;28;20025;-57
2023/07/04 01:02:50;;;;;;;7.53;3.30;;;16.60;54.00;;;;;;5028349;28;20029;-58
2023/07/04 01:05:23;;;;;;;9.38;3.13;;;16.60;53.90;;;;;;5036070;28;20528;-57
2023/07/04 01:08:24;;;;;;;12.07;3.80;;;16.60;54.00;;;;;;5018818;28;20041;-59
2023/07/04 01:10:51;;;;;;;7.45;3.22;;;16.70;54.00;;;;;;4968980;28;20507;-57
2023/07/04 01:13:38;;;;;;;7.95;3.60;;;16.60;53.80;;;;;;5024825;28;20037;-58
2023/07/04 01:16:06;;;;;;;10.60;3.55;;;16.70;54.00;;;;;;5049830;28;20025;-58
2023/07/04 01:18:32;;;;;;;5.75;3.15;;;16.70;53.90;;;;;;5044729;28;20021;-58
2023/07/04 01:20:59;;;;;;;8.02;3.80;;;16.70;54.00;;;;;;5049781;28;20029;-56
2023/07/04 01:23:55;;;;;;;5.15;2.83;;;16.70;53.90;;;;;;5028285;28;20030;-57
2023/07/04 01:26:31;;;;;;;5.35;3.15;;;16.70;54.00;;;;;;5049059;28;20029;-56
2023/07/04 01:28:57;;;;;;;8.75;3.42;;;16.70;53.90;;;;;;5028612;28;20037;-57
2023/07/04 01:31:25;;;;;;;9.35;3.75;;;16.70;53.90;;;;;;5049784;28;20044;-58
2023/07/04 01:33:52;;;;;;;6.50;3.40;;;16.70;54.60;;;;;;5027977;28;20532;-58
2023/07/04 01:36:25;;;;;;;8.07;3.70;;;16.70;54.30;;;;;;5047672;28;20671;-59
2023/07/04 01:38:51;;;;;;;7.28;3.58;;;16.70;54.10;;;;;;5026919;28;20025;-58
2023/07/04 01:41:17;;;;;;;6.70;3.97;;;16.70;54.10;;;;;;5048799;28;20033;-55
2023/07/04 01:43:47;;;;;;;5.40;2.53;;;16.70;54.20;;;;;;5028076;28;20064;-58
2023/07/04 01:46:12;;;;;;;8.98;3.15;;;16.70;54.10;;;;;;5049305;28;20032;-57
2023/07/04 01:48:37;;;;;;;7.18;3.58;;;16.70;54.10;;;;;;5028268;28;20199;-59
2023/07/04 01:51:03;;;;;;;5.72;3.30;;;16.70;54.10;;;;;;5048635;28;20427;-59
2023/07/04 01:53:29;;;;;;;5.43;2.80;;;16.70;54.10;;;;;;5043783;28;20044;-58
2023/07/04 01:55:55;;;;;;;7.20;3.00;;;16.80;54.20;;;;;;5049223;28;20525;-59
2023/07/04 01:58:20;;;;;;;9.68;3.65;;;16.70;54.10;;;;;;5028026;28;20101;-57
2023/07/04 02:00:46;;;;;;;6.90;3.35;;;16.70;54.30;;;;;;5048294;28;20083;-58
2023/07/04 02:03:11;;;;;;;5.45;2.70;;;16.80;54.80;;;;;;5028006;28;20108;-56
2023/07/04 02:05:38;;;;;;;6.65;3.40;;;16.70;54.40;;;;;;5032002;28;20505;-58
2023/07/04 02:08:04;;;;;;;8.27;3.65;;;16.70;54.60;;;;;;5034456;28;20481;-59
2023/07/04 02:10:29;;;;;;;6.38;3.13;;;16.70;54.80;;;;;;5048185;28;20542;-58
2023/07/04 02:12:55;;;;;;;6.47;3.83;;;16.70;54.80;;;;;;5027285;28;20045;-58
2023/07/04 02:15:22;;;;;;;8.25;3.90;;;16.70;55.20;;;;;;5048286;28;20123;-59
2023/07/04 02:17:47;;;;;;;7.10;3.40;;;16.70;55.20;;;;;;5027194;28;20081;-59
2023/07/04 02:20:13;;;;;;;7.55;3.50;;;16.70;55.20;;;;;;5047979;28;20037;-58
2023/07/04 02:22:41;;;;;;;9.82;3.65;;;16.70;55.30;;;;;;5027365;28;20025;-58
2023/07/04 02:25:07;;;;;;;7.88;2.97;;;16.70;55.70;;;;;;5048407;28;20033;-58
2023/07/04 02:27:33;;;;;;;7.32;3.60;;;16.70;55.40;;;;;;5027387;28;20118;-58
2023/07/04 02:29:58;;;;;;;6.00;3.58;;;16.70;55.70;;;;;;5038073;28;20050;-58
2023/07/04 02:32:24;;;;;;;5.15;3.38;;;16.70;55.50;;;;;;5039093;28;20444;-59
2023/07/04 02:34:49;;;;;;;9.30;3.55;;;16.70;55.60;;;;;;5028553;28;20117;-59
2023/07/04 02:37:15;;;;;;;7.10;3.53;;;16.70;55.60;;;;;;5045813;28;20067;-58
2023/07/04 02:39:40;;;;;;;4.85;2.97;;;16.70;55.70;;;;;;5043775;28;20037;-59
2023/07/04 02:42:06;;;;;;;7.82;3.28;;;16.60;55.80;;;;;;5027386;28;20068;-57
2023/07/04 02:44:33;;;;;;;5.65;3.00;;;16.60;55.80;;;;;;5043419;28;20037;-56
2023/07/04 02:46:58;;;;;;;5.20;2.67;;;16.60;56.00;;;;;;5028495;28;20036;-56
2023/07/04 02:49:24;;;;;;;6.88;2.45;;;16.50;56.30;;;;;;5044877;28;20041;-56
2023/07/04 02:51:49;;;;;;;9.48;3.35;;;16.50;56.50;;;;;;5027481;28;20030;-56
2023/07/04 02:54:15;;;;;;;9.35;3.58;;;16.40;57.00;;;;;;5047415;28;20167;-57
2023/07/04 02:56:41;;;;;;;10.30;3.10;;;16.40;57.10;;;;;;5026786;28;20104;-58
2023/07/04 02:59:07;;;;;;;7.85;3.53;;;16.40;57.00;;;;;;5047592;28;20440;-58
2023/07/04 03:01:33;;;;;;;8.90;3.65;;;16.30;57.10;;;;;;5026820;28;20029;-58
2023/07/04 03:03:58;;;;;;;6.07;3.13;;;16.30;57.40;;;;;;5047192;28;20037;-57
2023/07/04 03:06:24;;;;;;;8.68;3.25;;;16.20;57.40;;;;;;5021006;28;20046;-54
2023/07/04 03:08:49;;;;;;;7.68;3.00;;;16.10;58.10;;;;;;5047234;28;20035;-57
2023/07/04 03:11:15;;;;;;;6.25;3.22;;;16.20;57.80;;;;;;5026872;28;20121;-54
2023/07/04 03:13:40;;;;;;;8.45;3.10;;;16.10;58.10;;;;;;5047104;28;20063;-55
2023/07/04 03:16:06;;;;;;;5.88;2.88;;;16.10;58.50;;;;;;5026863;28;20029;-56
2023/07/04 03:18:33;;;;;;;4.63;2.83;;;16.20;59.30;;;;;;5047096;28;20031;-51
2023/07/04 03:20:59;;;;;;;6.80;3.22;;;16.20;58.80;;;;;;5026346;28;20030;-53
2023/07/04 03:23:24;;;;;;;7.78;3.40;;;16.20;58.80;;;;;;5047005;28;20033;-53
2023/07/04 03:25:50;;;;;;;8.82;3.17;;;16.20;59.10;;;;;;5028787;28;20042;-55
2023/07/04 03:28:15;;;;;;;7.53;3.58;;;16.20;59.20;;;;;;5051163;28;20033;-56
2023/07/04 03:30:42;;;;;;;9.32;3.72;;;16.20;59.30;;;;;;5030662;28;20087;-54
2023/07/04 03:33:07;;;;;;;8.00;3.97;;;16.30;60.40;;;;;;5051344;28;20040;-52
2023/07/04 03:35:37;;;;;;;5.72;3.40;;;16.30;59.50;;;;;;5030374;28;20029;-55
2023/07/04 03:38:02;;;;;;;7.88;3.63;;;16.40;59.50;;;;;;5051628;28;20166;-55
2023/07/04 03:40:27;;;;;;;7.88;3.53;;;16.40;59.40;;;;;;5030468;28;20053;-56
2023/07/04 03:42:53;;;;;;;4.70;3.03;;;16.50;59.70;;;;;;5050849;28;20029;-54
2023/07/04 03:45:18;;;;;;;6.20;3.13;;;16.70;59.40;;;;;;5030382;28;20037;-56
2023/07/04 03:47:44;;;;;;;5.40;3.03;;;16.90;58.80;;;;;;5035441;28;20092;-55
2023/07/04 03:50:13;;;;;;;6.28;2.92;;;17.20;58.40;;;;;;5051027;28;20485;-55
2023/07/04 03:52:38;;;;;;;7.28;3.72;;;17.50;57.70;;;;;;5029752;28;20432;-54
2023/07/04 03:55:04;;;;;;;6.10;3.42;;;17.70;57.00;;;;;;5032781;28;20033;-55
2023/07/04 03:57:30;;;;;;;6.55;3.20;;;17.80;56.80;;;;;;5038844;28;20083;-54
2023/07/04 03:59:55;;;;;;;5.38;3.15;;;17.80;56.40;;;;;;5050998;28;20056;-56
2023/07/04 04:02:21;;;;;;;7.38;3.50;;;17.80;56.10;;;;;;5030310;28;20068;-56
2023/07/04 04:04:46;;;;;;;4.32;2.78;;;17.90;56.00;;;;;;5043718;28;20059;-55
2023/07/04 04:07:12;;;;;;;6.38;3.40;;;18.30;55.60;;;;;;5029863;28;20096;-55
2023/07/04 04:09:38;;;;;;;5.53;3.15;;;18.80;54.60;;;;;;5050580;28;20087;-56
2023/07/04 04:12:06;;;;;;;9.63;3.45;;;19.30;53.20;;;;;;5029877;28;20037;-55
2023/07/04 04:14:32;;;;;;;6.10;3.42;;;19.80;51.30;;;;;;5031505;28;20028;-55
2023/07/04 04:16:58;;;;;;;7.45;3.17;;;20.30;50.20;;;;;;5041848;28;20068;-54
2023/07/04 04:19:25;;;;;;;7.45;3.30;;;20.70;48.70;;;;;;5031351;28;20022;-53
2023/07/04 04:21:52;;;;;;;6.50;3.47;;;21.20;47.90;;;;;;5044013;28;20025;-51
2023/07/04 04:24:17;;;;;;;6.57;3.53;;;21.70;47.00;;;;;;5031236;28;20030;-50
2023/07/04 04:26:43;;;;;;;6.55;3.38;;;22.20;45.30;;;;;;5044801;28;20370;-55
2023/07/04 04:29:09;;;;;;;4.78;3.08;;;22.50;41.30;;;;;;5033605;28;20539;-55
2023/07/04 04:31:37;;;;;;;3.70;2.72;;;22.90;42.10;;;;;;5046468;28;20036;-56
2023/07/04 04:34:03;;;;;;;6.78;3.28;;;23.20;40.60;;;;;;5031185;28;20378;-54
2023/07/04 04:36:30;;;;;;;4.88;3.13;;;23.70;40.10;;;;;;5046277;28;20033;-53
2023/07/04 04:38:56;;;;;;;8.27;3.53;;;24.00;38.10;;;;;;5030921;28;20032;-54
2023/07/04 04:41:21;;;;;;;7.10;2.90;;;24.40;36.40;;;;;;5048085;28;20111;-53
2023/07/04 04:43:49;;;;;;;9.25;3.45;;;24.80;35.80;;;;;;5049404;28;20029;-56
2023/07/04 04:46:16;;;;;;;7.22;3.20;;;25.20;34.50;;;;;;5031005;28;20184;-52
2023/07/04 04:48:41;;;;;;;4.70;2.90;;;25.50;32.60;;;;;;5024292;28;20033;-52
2023/07/04 04:51:10;;;;;;;5.70;3.22;;;25.90;31.50;;;;;;5029318;28;20029;-55
2023/07/04 04:53:37;;;;;;;6.63;3.00;;;26.30;28.70;;;;;;5028948;28;20546;-51
2023/07/04 04:56:03;;;;;;;4.82;3.30;;;26.60;29.20;;;;;;5048805;28;20036;-53
2023/07/04 04:58:30;;;;;;;5.10;3.00;;;27.00;26.10;;;;;;5037618;28;20631;-55
2023/07/04 05:00:55;;;;;;;6.30;3.00;;;27.20;27.00;;;;;;5049330;28;20098;-56
2023/07/04 05:03:21;;;;;;;4.60;2.80;;;27.50;26.40;;;;;;5027975;28;20049;-52
2023/07/04 05:05:46;;;;;;;6.30;3.38;;;27.60;25.10;;;;;;5043253;28;20106;-55
2023/07/04 05:08:12;;;;;;;7.43;3.38;;;27.70;24.40;;;;;;5027736;28;20029;-50
2023/07/04 05:10:37;;;;;;;5.65;3.50;;;27.90;23.60;;;;;;5047299;28;20075;-48
2023/07/04 05:13:03;;;;;;;3.95;2.92;;;28.00;22.70;;;;;;5027514;28;20487;-51
2023/07/04 05:15:28;;;;;;;6.13;3.42;;;28.30;22.50;;;;;;5048203;28;20562;-55
2023/07/04 05:17:54;;;;;;;6.15;3.65;;;28.70;21.70;;;;;;5027608;28;20106;-54
2023/07/04 05:20:23;;;;;;;5.45;3.22;;;29.00;19.60;;;;;;5048104;28;20104;-56
2023/07/04 05:22:50;;;;;;;5.75;3.25;;;29.30;20.20;;;;;;5027053;28;20485;-55
2023/07/04 05:25:15;;;;;;;3.95;2.90;;;29.60;19.30;;;;;;5048411;28;20691;-54
2023/07/04 05:27:41;;;;;;;6.78;3.55;;;29.90;18.10;;;;;;5027392;28;20025;-55
2023/07/04 05:30:08;;;;;;;6.97;3.83;;;30.00;17.60;;;;;;5039284;28;20045;-50
2023/07/04 05:32:34;;;;;;;7.55;3.60;;;30.30;16.20;;;;;;5027223;28;20030;-55
2023/07/04 05:34:59;;;;;;;9.00;3.55;;;30.60;14.90;;;;;;5028775;28;20033;-52
2023/07/04 05:37:25;;;;;;;7.22;3.40;;;30.60;14.60;;;;;;5040806;28;20128;-55
2023/07/04 05:39:51;;;;;;;5.38;3.30;;;30.90;14.60;;;;;;5028788;28;20100;-55
2023/07/04 05:42:16;;;;;;;6.53;3.40;;;31.50;14.00;;;;;;5041952;28;20120;-55
2023/07/04 05:44:42;;;;;;;4.80;2.72;;;31.80;13.30;;;;;;5028544;28;20437;-52
2023/07/04 05:47:08;;;;;;;4.88;3.00;;;32.50;12.70;;;;;;5045443;28;20032;-55
2023/07/04 05:49:33;;;;;;;4.70;2.92;;;33.10;10.20;;;;;;5047715;28;20029;-55
2023/07/04 05:51:59;;;;;;;6.88;3.08;;;33.30;8.90;;;;;;5044567;28;20175;-54
2023/07/04 05:54:24;;;;;;;4.85;3.00;;;33.20;9.70;;;;;;5028518;28;20722;-53
2023/07/04 05:56:55;;;;;;;6.53;3.00;;;33.40;9.40;;;;;;5045336;28;20302;-55
2023/07/04 05:59:21;;;;;;;6.30;3.28;;;33.60;7.40;;;;;;5028357;28;20430;-51
2023/07/04 06:01:47;;;;;;;5.28;3.47;;;33.80;8.80;;;;;;5046523;28;20108;-51
2023/07/04 06:04:13;;;;;;;5.57;3.25;;;33.80;7.40;;;;;;5048098;28;20039;-54
2023/07/04 06:06:48;;;;;;;6.38;3.50;;;33.10;7.90;;;;;;5025473;28;20041;-53
2023/07/04 06:09:15;;;;;;;8.82;3.88;;;32.30;6.40;;;;;;5008700;28;20480;-56
2023/07/04 06:11:45;;;;;;;8.45;3.55;;;31.00;8.20;;;;;;5047093;28;20049;-55
2023/07/04 06:14:21;;;;;;;4.88;3.30;;;30.10;8.90;;;;;;5026347;28;20040;-55
2023/07/04 06:16:47;;;;;;;6.38;3.58;;;29.90;8.60;;;;;;5007684;28;20105;-53
2023/07/04 06:19:12;;;;;;;5.88;3.75;;;29.90;9.00;;;;;;5008328;28;20109;-54
2023/07/04 06:21:38;;;;;;;5.65;3.78;;;30.60;8.50;;;;;;5046664;28;20021;-53
2023/07/04 06:24:03;;;;;;;6.28;3.95;;;31.20;7.10;;;;;;5045216;28;20053;-52
2023/07/04 06:26:32;;;;;;;5.47;3.85;;;31.80;7.60;;;;;;5036479;28;20116;-56
2023/07/04 06:28:57;;;;;;;5.55;3.60;;;32.30;7.20;;;;;;5028638;28;20022;-54
2023/07/04 06:31:24;;;;;;;4.38;3.30;;;33.00;6.60;;;;;;5047766;28;20098;-56
2023/07/04 06:33:50;;;;;;;6.57;3.78;;;33.80;6.10;;;;;;5026245;28;20116;-51
2023/07/04 06:36:16;;;;;;;4.95;3.35;;;34.60;5.60;;;;;;5046802;28;20128;-54
2023/07/04 06:38:43;;;;;;;8.23;3.83;;;35.00;4.60;;;;;;5026071;28;20739;-56
2023/07/04 06:41:13;;;;;;;6.82;3.63;;;35.10;3.90;;;;;;5046991;28;20032;-54
2023/07/04 06:43:44;;;;;;;6.38;3.80;;;35.10;3.00;;;;;;5025985;28;20108;-55
2023/07/04 06:46:16;;;;;;;4.45;3.15;;;35.30;2.90;;;;;;5047143;28;20692;-54
2023/07/04 06:48:41;;;;;;;7.95;3.65;;;35.40;3.10;;;;;;5025801;28;20033;-57
2023/07/04 06:51:12;;;;;;;8.82;3.78;;;35.60;2.90;;;;;;5046632;28;20039;-55
2023/07/04 06:53:38;;;;;;;6.80;3.33;;;36.00;2.50;;;;;;5021071;28;20048;-56
2023/07/04 06:56:30;;;;;;;6.88;3.42;;;36.20;2.50;;;;;;5046926;28;20090;-57
2023/07/04 06:58:56;;;;;;;6.93;3.47;;;36.50;1.00;;;;;;5023722;28;20509;-56
2023/07/04 07:01:26;;;;;;;7.07;3.65;;;36.70;1.90;;;;;;5046692;28;20071;-56
2023/07/04 07:03:52;;;;;;;6.32;3.47;;;36.80;2.00;;;;;;5025593;28;20038;-57
2023/07/04 07:06:18;;;;;;;4.85;3.10;;;36.50;1.40;;;;;;5041405;28;20528;-55
2023/07/04 07:08:43;;;;;;;6.68;3.70;;;36.00;1.40;;;;;;5024919;28;20022;-57
2023/07/04 07:11:11;;;;;;;8.70;4.22;;;35.60;1.60;;;;;;5027066;28;20029;-54
2023/07/04 07:13:37;;;;;;;5.05;3.20;;;34.50;2.20;;;;;;5033417;28;20602;-52
2023/07/04 07:16:07;;;;;;;6.63;3.72;;;34.80;2.40;;;;;;5047140;28;20596;-59
2023/07/04 07:18:34;;;;;;;5.10;2.97;;;34.70;2.00;;;;;;5025402;28;20031;-58
2023/07/04 07:21:01;;;;;;;7.82;3.33;;;34.40;2.90;;;;;;5027224;28;20472;-58
2023/07/04 07:23:26;;;;;;;5.13;2.85;;;34.50;2.50;;;;;;5038822;28;20025;-56
2023/07/04 07:25:55;;;;;;;5.22;3.15;;;34.20;2.60;;;;;;5026987;28;20046;-57
2023/07/04 07:28:22;;;;;;;11.70;3.58;;;34.60;2.30;;;;;;5039624;28;20030;-58
2023/07/04 07:30:48;;;;;;;3.97;2.90;;;35.10;2.10;;;;;;5026764;28;20137;-58
2023/07/04 07:33:13;;;;;;;6.00;2.70;;;35.50;1.90;;;;;;5044150;28;20112;-60
2023/07/04 07:35:39;;;;;;;6.45;2.47;;;36.10;1.60;;;;;;5046905;28;20033;-58
2023/07/04 07:38:04;;;;;;;4.05;2.72;;;36.70;1.20;;;;;;5042115;28;20083;-58
2023/07/04 07:40:30;;;;;;;4.30;2.50;;;37.00;1.00;;;;;;5026843;28;20336;-58
2023/07/04 07:42:55;;;;;;;2.80;2.30;;;37.50;1.00;;;;;;5042850;28;20037;-58
2023/07/04 07:45:20;;;;;;;4.47;2.65;;;37.00;1.00;;;;;;5026826;28;20021;-58
2023/07/04 07:47:47;;;;;;;4.30;2.60;;;36.80;1.00;;;;;;5045419;28;20748;-58
2023/07/04 07:50:12;;;;;;;4.80;2.67;;;36.30;1.00;;;;;;5007080;28;20501;-59
2023/07/04 07:52:38;;;;;;;4.70;2.33;;;36.20;1.00;;;;;;5034915;28;20030;-58
2023/07/04 07:55:03;;;;;;;5.63;2.65;;;36.10;1.00;;;;;;5024847;28;20029;-58
2023/07/04 07:57:29;;;;;;;3.97;2.53;;;35.70;1.00;;;;;;5044530;28;20057;-58
2023/07/04 07:59:54;;;;;;;4.10;2.63;;;34.70;1.00;;;;;;5025457;28;20091;-58
2023/07/04 08:02:20;;;;;;;4.55;2.80;;;33.40;1.80;;;;;;5045940;28;20425;-58
2023/07/04 08:04:45;;;;;;;8.07;3.20;;;32.40;2.00;;;;;;5023043;28;20037;-47
2023/07/04 08:07:11;;;;;;;4.53;2.63;;;32.40;2.30;;;;;;5046443;28;20162;-57
2023/07/04 08:09:37;;;;;;;4.97;2.67;;;32.00;3.10;;;;;;5025235;28;20537;-56
2023/07/04 08:12:03;;;;;;;5.13;2.72;;;31.40;3.00;;;;;;5048358;28;20024;-57
2023/07/04 08:14:28;;;;;;;4.18;2.55;;;31.00;3.40;;;;;;5029129;28;20033;-57
2023/07/04 08:16:54;;;;;;;5.10;2.53;;;31.70;3.10;;;;;;5049461;28;20159;-58
2023/07/04 08:19:23;;;;;;;6.07;2.80;;;32.50;2.60;;;;;;5028979;28;20211;-59
2023/07/04 08:21:49;;;;;;;5.20;2.75;;;32.50;2.30;;;;;;5049901;28;20021;-58
2023/07/04 08:24:16;;;;;;;4.97;2.50;;;32.80;2.20;;;;;;5028715;28;20040;-58
2023/07/04 08:26:44;;;;;;;7.43;3.05;;;33.40;1.80;;;;;;5049401;28;20037;-58
2023/07/04 08:29:10;;;;;;;4.00;2.65;;;33.40;1.70;;;;;;5030957;28;20052;-58
2023/07/04 08:31:35;;;;;;;4.55;2.63;;;33.60;1.60;;;;;;5049998;28;20029;-58
2023/07/04 08:34:02;;;;;;;5.00;2.22;;;33.50;1.90;;;;;;5038884;28;20105;-58
2023/07/04 08:36:27;;;;;;;5.50;2.58;;;33.60;1.60;;;;;;5049644;28;20029;-58
2023/07/04 08:38:53;;;;;;;3.95;2.33;;;33.50;1.70;;;;;;5028304;28;20417;-60
2023/07/04 08:41:41;;;;;;;8.32;2.28;;;32.60;1.90;;;;;;5048935;28;20378;-58
2023/07/04 08:44:17;;;;;;;6.47;2.42;;;32.10;2.20;;;;;;5027825;28;20040;-58
2023/07/04 08:46:54;;;;;;;11.13;2.47;;;31.60;2.70;;;;;;5010012;28;20121;-59
2023/07/04 08:49:31;;;;;;;3.92;2.10;;;30.90;2.70;;;;;;5020802;28;20053;-58
2023/07/04 08:52:17;;;;;;;7.05;1.90;;;30.70;3.10;;;;;;5049269;28;20025;-58
2023/07/04 08:54:44;;;;;;;5.07;2.10;;;30.80;3.30;;;;;;5024021;28;20026;-58
2023/07/04 08:57:23;;;;;;;4.68;2.00;;;30.70;3.70;;;;;;5048951;28;20036;-59
2023/07/04 08:59:59;;;;;;;2.80;1.92;;;30.40;3.80;;;;;;5040386;28;20480;-58
2023/07/04 09:02:47;;;;;;;5.97;2.20;;;30.10;4.40;;;;;;5009940;28;20026;-55
2023/07/04 09:05:33;;;;;;;4.13;1.80;;;29.50;4.60;;;;;;5016513;28;20114;-58
2023/07/04 09:08:35;;;;;;;4.57;1.95;;;29.10;4.90;;;;;;5047283;28;20029;-58
2023/07/04 09:11:05;;;;;;;4.15;2.28;;;28.70;5.10;;;;;;5049343;28;20052;-58
2023/07/04 09:13:35;;;;;;;4.85;1.92;;;28.30;5.30;;;;;;5013953;28;20044;-58
2023/07/04 09:16:11;;;;;;;5.22;2.15;;;28.20;5.50;;;;;;5029386;28;20025;-57
2023/07/04 09:18:56;;;;;;;4.72;2.00;;;28.10;6.10;;;;;;5039837;28;20025;-58
2023/07/04 09:21:23;;;;;;;3.00;1.95;;;27.90;6.50;;;;;;5009555;28;20038;-57
2023/07/04 09:23:51;;;;;;;3.08;1.40;;;27.70;6.10;;;;;;5036130;28;20061;-59
2023/07/04 09:26:19;;;;;;;5.03;1.90;;;27.90;6.30;;;;;;5048575;28;20094;-58
2023/07/04 09:28:47;;;;;;;3.47;1.88;;;28.40;6.20;;;;;;5026936;28;20032;-58
2023/07/04 09:31:21;;;;;;;7.35;2.00;;;28.40;6.10;;;;;;5048401;28;20056;-58
2023/07/04 09:33:52;;;;;;;4.70;1.70;;;28.60;5.20;;;;;;5023946;28;20024;-57
2023/07/04 09:36:20;;;;;;;6.90;2.00;;;28.50;5.50;;;;;;5048635;28;20648;-58
2023/07/04 09:38:54;;;;;;;6.72;1.63;;;28.50;5.50;;;;;;5027058;28;20120;-57
2023/07/04 09:41:21;;;;;;;5.57;1.80;;;28.40;5.20;;;;;;5048659;28;20454;-58
2023/07/04 09:43:47;;;;;;;4.80;1.50;;;28.20;5.20;;;;;;5027076;28;20021;-58
2023/07/04 09:46:15;;;;;;;3.25;1.90;;;28.10;5.10;;;;;;5047854;28;20043;-58
2023/07/04 09:48:41;;;;;;;3.17;1.75;;;27.70;5.30;;;;;;5026510;28;20064;-57
2023/07/04 09:51:22;;;;;;;7.00;1.83;;;27.60;5.10;;;;;;5028750;28;20049;-58
2023/07/04 09:53:47;;;;;;;9.57;1.98;;;27.40;5.40;;;;;;5037784;28;20021;-57
2023/07/04 09:56:25;;;;;;;4.30;1.83;;;27.40;5.70;;;;;;5047723;28;20033;-55
2023/07/04 09:59:09;;;;;;;3.10;1.80;;;27.10;6.20;;;;;;5024561;28;20033;-57
2023/07/04 10:01:39;;;;;;;2.53;1.50;;;27.00;6.80;;;;;;5047919;28;20029;-57
2023/07/04 10:04:07;;;;;;;6.43;1.58;;;27.10;6.40;;;;;;5026086;28;20037;-56
2023/07/04 10:06:33;;;;;;;3.47;1.98;;;27.00;6.70;;;;;;5029679;28;20106;-57
2023/07/04 10:09:02;;;;;;;5.22;1.90;;;26.90;6.80;;;;;;5025933;28;20379;-59
2023/07/04 10:11:37;;;;;;;3.85;1.90;;;26.70;6.80;;;;;;5047738;28;20086;-56
2023/07/04 10:14:13;;;;;;;4.32;1.80;;;26.50;6.90;;;;;;5017015;28;20044;-57
2023/07/04 10:16:50;;;;;;;3.28;1.80;;;26.30;6.90;;;;;;5047817;28;20032;-59
2023/07/04 10:19:19;;;;;;;3.60;1.88;;;26.40;7.30;;;;;;5018955;28;20449;-57
2023/07/04 10:21:51;;;;;;;3.00;1.73;;;26.50;7.40;;;;;;5047712;28;20465;-58
2023/07/04 10:24:25;;;;;;;3.38;1.77;;;26.50;6.60;;;;;;5038582;28;20040;-55
2023/07/04 10:26:54;;;;;;;4.75;1.75;;;26.50;7.10;;;;;;5047728;28;20047;-57
2023/07/04 10:29:28;;;;;;;6.05;1.80;;;26.30;7.00;;;;;;5030048;28;20041;-58
2023/07/04 10:31:59;;;;;;;4.15;1.90;;;26.40;7.30;;;;;;5047745;28;20150;-57
2023/07/04 10:34:26;;;;;;;3.30;1.80;;;26.20;7.30;;;;;;5019416;28;20091;-57
2023/07/04 10:36:52;;;;;;;3.17;1.80;;;26.10;7.60;;;;;;5046095;28;20784;-58
2023/07/04 10:39:18;;;;;;;3.45;1.73;;;26.00;7.80;;;;;;5026391;28;20037;-58
2023/07/04 10:41:56;;;;;;;3.70;1.75;;;26.00;7.80;;;;;;5046881;28;20024;-57
2023/07/04 10:44:27;;;;;;;5.47;1.98;;;26.00;7.70;;;;;;5032331;28;20079;-57
2023/07/04 10:47:10;;;;;;;3.80;1.70;;;26.10;7.70;;;;;;5007890;28;20053;-58
2023/07/04 10:49:44;;;;;;;5.18;2.08;;;26.10;8.40;;;;;;5020922;28;20045;-57
2023/07/04 10:52:18;;;;;;;6.93;1.73;;;26.00;7.80;;;;;;5007897;28;20030;-56
2023/07/04 10:54:43;;;;;;;6.93;1.90;;;25.70;7.40;;;;;;5021854;28;20041;-55
2023/07/04 10:57:23;;;;;;;1.42;1.27;;;25.60;7.50;;;;;;5046673;28;20052;-58
2023/07/04 10:59:52;;;;;;;5.07;2.35;;;25.70;7.70;;;;;;5022572;28;20037;-56
2023/07/04 11:02:41;;;;;;;2.42;1.55;;;25.70;8.00;;;;;;5047081;28;20167;-55
2023/07/04 11:05:13;;;;;;;3.58;1.35;;;25.60;8.00;;;;;;5036732;28;20040;-58
2023/07/04 11:07:42;;;;;;;3.00;1.48;;;25.70;7.80;;;;;;5046988;28;20017;-57
2023/07/04 11:10:11;;;;;;;3.95;1.70;;;25.80;7.80;;;;;;5028760;28;20030;-56
2023/07/04 11:12:39;;;;;;;8.13;1.80;;;25.80;8.00;;;;;;5047143;28;20036;-56
2023/07/04 11:15:16;;;;;;;3.78;1.92;;;25.80;7.80;;;;;;5045346;28;20025;-52
2023/07/04 11:17:43;;;;;;;4.50;1.70;;;25.90;7.70;;;;;;5005715;28;20115;-55
2023/07/04 11:20:18;;;;;;;3.53;1.60;;;25.90;7.70;;;;;;5027497;28;20064;-54
2023/07/04 11:22:50;;;;;;;4.82;1.75;;;25.80;7.80;;;;;;5006114;28;20499;-55
2023/07/04 11:25:54;;;;;;;2.67;1.52;;;26.00;8.00;;;;;;5027227;28;20072;-55
2023/07/04 11:28:34;;;;;;;6.88;1.75;;;26.00;8.10;;;;;;5015532;28;20132;-54
2023/07/04 11:31:11;;;;;;;8.45;1.55;;;25.80;7.80;;;;;;5026851;28;20462;-53
2023/07/04 11:34:00;;;;;;;4.88;1.48;;;25.70;8.20;;;;;;5029142;28;20025;-52
2023/07/04 11:36:30;;;;;;;5.78;1.70;;;25.50;8.50;;;;;;5007401;28;20029;-55
2023/07/04 11:39:00;;;;;;;5.65;1.67;;;25.20;8.40;;;;;;5034153;28;20108;-54
2023/07/04 11:41:36;;;;;;;3.97;1.77;;;25.00;9.00;;;;;;5046220;28;20025;-55
2023/07/04 11:44:23;;;;;;;8.98;2.13;;;24.80;9.20;;;;;;5024637;28;20495;-55
2023/07/04 11:47:02;;;;;;;3.95;1.95;;;24.80;9.90;;;;;;5009479;28;20097;-55
2023/07/04 11:49:30;;;;;;;5.10;1.45;;;24.80;9.50;;;;;;5048888;28;20037;-54
2023/07/04 11:52:08;;;;;;;5.57;1.70;;;25.00;9.30;;;;;;5034111;28;20029;-55
2023/07/04 11:54:33;;;;;;;6.20;1.40;;;25.10;9.70;;;;;;5037036;28;20063;-54
2023/07/04 11:56:59;;;;;;;7.28;2.08;;;25.20;9.50;;;;;;5030835;28;20216;-55
2023/07/04 11:59:27;;;;;;;4.63;1.80;;;25.30;9.20;;;;;;5029668;28;20040;-55
2023/07/04 12:01:52;;;;;;;6.70;2.03;;;25.30;9.10;;;;;;5050190;28;20520;-54
2023/07/04 12:04:22;;;;;;;3.78;1.88;;;25.40;9.20;;;;;;5029318;28;20037;-53
2023/07/04 12:07:10;;;;;;;3.80;1.85;;;25.60;9.70;;;;;;5007170;28;20494;-53
2023/07/04 12:09:51;;;;;;;5.72;2.17;;;25.70;9.60;;;;;;5020822;28;20034;-53
2023/07/04 12:12:28;;;;;;;4.13;1.77;;;25.80;9.90;;;;;;5011085;28;20065;-53
2023/07/04 12:15:01;;;;;;;4.32;1.63;;;25.80;9.80;;;;;;5023097;28;20073;-54
2023/07/04 12:17:27;;;;;;;6.07;1.98;;;25.60;9.60;;;;;;5049986;28;20033;-53
2023/07/04 12:20:00;;;;;;;5.03;2.42;;;25.50;9.60;;;;;;5029102;28;20036;-55
2023/07/04 12:22:26;;;;;;;4.95;1.75;;;25.70;9.70;;;;;;5010797;28;20029;-52
2023/07/04 12:24:52;;;;;;;5.43;2.05;;;25.70;9.50;;;;;;5033462;28;20052;-54
2023/07/04 12:27:18;;;;;;;4.22;1.73;;;25.60;9.60;;;;;;5049511;28;20226;-55
2023/07/04 12:29:46;;;;;;;4.25;2.00;;;25.50;9.60;;;;;;5028971;28;20564;-55
2023/07/04 12:32:18;;;;;;;6.97;2.13;;;25.40;9.80;;;;;;5049779;28;20175;-54
2023/07/04 12:34:44;;;;;;;3.25;2.03;;;25.40;10.40;;;;;;5028264;28;20646;-53
2023/07/04 12:37:14;;;;;;;6.10;2.45;;;25.30;10.20;;;;;;5049401;28;20086;-53
2023/07/04 12:39:48;;;;;;;5.15;2.22;;;25.30;10.30;;;;;;5028160;28;20037;-55
2023/07/04 12:42:28;;;;;;;5.65;2.60;;;25.40;10.70;;;;;;5049669;28;20041;-53
2023/07/04 12:44:53;;;;;;;4.65;2.08;;;25.30;10.40;;;;;;5036760;28;20665;-53
2023/07/04 12:47:22;;;;;;;6.13;2.13;;;25.20;10.70;;;;;;5049698;28;20033;-53
2023/07/04 12:49:49;;;;;;;6.15;2.38;;;25.00;10.80;;;;;;5028155;28;20028;-53
2023/07/04 12:52:15;;;;;;;5.35;2.30;;;25.20;10.70;;;;;;5049220;28;20033;-53
2023/07/04 12:54:42;;;;;;;4.13;2.35;;;25.30;10.90;;;;;;5028323;28;20040;-55
2023/07/04 12:57:19;;;;;;;6.28;2.35;;;25.20;10.40;;;;;;5048687;28;20386;-55
2023/07/04 12:59:47;;;;;;;6.93;2.63;;;25.20;10.70;;;;;;5020956;28;20029;-56
2023/07/04 13:02:25;;;;;;;4.53;1.92;;;25.00;10.70;;;;;;5049149;28;20028;-53